createdAt,value
2022-12-08T00:01:55.391Z,4.78
2022-12-08T00:04:58.860Z,4.69
2022-12-08T00:08:08.297Z,4.83
2022-12-08T00:10:57.923Z,4.81
2022-12-08T00:13:48.266Z,4.72
2022-12-08T00:16:38.967Z,4.65
2022-12-08T00:19:29.625Z,4.68
2022-12-08T00:22:18.991Z,4.67
2022-12-08T00:25:09.290Z,4.58
2022-12-08T00:27:58.667Z,4.57
2022-12-08T00:30:48.340Z,4.53
2022-12-08T00:33:39.562Z,4.58
2022-12-08T00:36:29.645Z,4.58
2022-12-08T00:39:19.531Z,4.57
2022-12-08T00:42:15.532Z,4.54
2022-12-08T00:45:05.355Z,4.47
2022-12-08T00:47:54.665Z,4.49
2022-12-08T00:50:45.317Z,4.41
2022-12-08T00:53:34.803Z,4.35
2022-12-08T00:56:24.231Z,4.26
2022-12-08T00:59:13.729Z,4.22
2022-12-08T01:02:06.078Z,4.28
2022-12-08T01:04:55.403Z,4.20
2022-12-08T01:07:46.103Z,4.18
2022-12-08T01:10:37.299Z,4.16
2022-12-08T01:13:26.802Z,4.12
2022-12-08T01:16:23.235Z,4.09
2022-12-08T01:19:14.703Z,4.06
2022-12-08T01:22:04.001Z,3.99
2022-12-08T01:24:54.782Z,3.93
2022-12-08T01:27:44.171Z,3.93
2022-12-08T01:30:33.678Z,3.93
2022-12-08T01:33:23.027Z,3.98
2022-12-08T01:36:22.513Z,3.88
2022-12-08T01:39:18.357Z,3.99
2022-12-08T01:42:22.373Z,3.91
2022-12-08T01:45:22.679Z,3.92
2022-12-08T01:48:18.019Z,3.89
2022-12-08T01:51:08.158Z,3.89
2022-12-08T01:53:57.734Z,3.79
2022-12-08T01:56:56.918Z,3.89
2022-12-08T01:59:55.369Z,3.88
2022-12-08T02:02:54.921Z,3.81
2022-12-08T02:05:45.224Z,3.80
2022-12-08T02:08:36.366Z,3.73
2022-12-08T02:11:25.670Z,3.74
2022-12-08T02:14:16.038Z,3.75
2022-12-08T02:17:17.489Z,3.72
2022-12-08T02:20:41.694Z,3.68
2022-12-08T02:23:43.347Z,3.68
2022-12-08T02:27:32.486Z,3.64
2022-12-08T02:30:26.123Z,3.58
2022-12-08T02:34:00.030Z,3.56
2022-12-08T02:37:00.799Z,3.55
2022-12-08T02:40:01.444Z,3.50
2022-12-08T02:42:59.737Z,3.44
2022-12-08T02:45:55.420Z,3.46
2022-12-08T02:48:46.515Z,3.47
2022-12-08T02:51:35.877Z,3.47
2022-12-08T02:54:25.268Z,3.42
2022-12-08T02:57:33.300Z,3.39
2022-12-08T03:00:26.359Z,3.34
2022-12-08T03:03:25.380Z,3.33
2022-12-08T03:06:30.796Z,3.25
2022-12-08T03:09:30.405Z,3.22
2022-12-08T03:12:27.992Z,3.34
2022-12-08T03:15:21.710Z,3.38
2022-12-08T03:18:15.463Z,3.39
2022-12-08T03:21:07.514Z,3.41
2022-12-08T03:23:58.946Z,3.45
2022-12-08T03:26:53.356Z,3.43
2022-12-08T03:29:42.881Z,3.43
2022-12-08T03:32:38.922Z,3.45
2022-12-08T03:35:32.400Z,3.44
2022-12-08T03:38:21.795Z,3.50
2022-12-08T03:41:22.109Z,3.45
2022-12-08T03:44:11.446Z,3.48
2022-12-08T03:47:00.788Z,3.56
2022-12-08T03:49:50.121Z,3.54
2022-12-08T03:52:39.518Z,3.58
2022-12-08T03:55:28.863Z,3.53
2022-12-08T03:58:19.546Z,3.59
2022-12-08T04:01:08.983Z,3.62
2022-12-08T04:03:58.388Z,3.67
2022-12-08T04:06:47.669Z,3.76
2022-12-08T04:09:37.002Z,3.85
2022-12-08T04:12:26.360Z,3.86
2022-12-08T04:15:17.340Z,3.83
2022-12-08T04:18:07.155Z,3.88
2022-12-08T04:20:56.472Z,3.88
2022-12-08T04:23:46.587Z,3.88
2022-12-08T04:26:35.975Z,3.79
2022-12-08T04:29:25.280Z,3.84
2022-12-08T04:32:15.972Z,3.86
2022-12-08T04:35:05.784Z,3.89
2022-12-08T04:37:55.132Z,3.89
2022-12-08T04:40:44.735Z,3.93
2022-12-08T04:43:34.376Z,3.96
2022-12-08T04:46:23.682Z,3.86
2022-12-08T04:49:14.419Z,3.96
2022-12-08T04:52:03.699Z,3.86
2022-12-08T04:54:53.028Z,3.89
2022-12-08T04:57:42.373Z,3.86
2022-12-08T05:00:31.627Z,3.80
2022-12-08T05:03:26.864Z,3.93
2022-12-08T05:06:19.266Z,3.90
2022-12-08T05:09:08.683Z,3.93
2022-12-08T05:11:58.025Z,3.93
2022-12-08T05:14:48.935Z,3.87
2022-12-08T05:17:38.203Z,3.90
2022-12-08T05:20:29.343Z,3.87
2022-12-08T05:23:20.092Z,3.88
2022-12-08T05:26:09.459Z,3.89
2022-12-08T05:28:59.036Z,3.88
2022-12-08T05:31:48.435Z,3.86
2022-12-08T05:34:38.061Z,3.82
2022-12-08T05:37:27.688Z,3.85
2022-12-08T05:40:18.633Z,3.88
2022-12-08T05:43:08.247Z,3.94
2022-12-08T05:45:57.789Z,3.96
2022-12-08T05:48:47.123Z,3.95
2022-12-08T05:51:36.464Z,3.93
2022-12-08T05:54:25.735Z,3.98
2022-12-08T05:57:16.410Z,3.96
2022-12-08T06:00:07.618Z,4.03
2022-12-08T06:03:01.593Z,4.07
2022-12-08T06:05:51.032Z,3.99
2022-12-08T06:08:40.306Z,4.06
2022-12-08T06:11:32.206Z,4.08
2022-12-08T06:14:23.010Z,4.10
2022-12-08T06:17:12.333Z,4.12
2022-12-08T06:20:02.030Z,4.17
2022-12-08T06:22:51.986Z,4.15
2022-12-08T06:25:41.248Z,4.18
2022-12-08T06:28:31.556Z,4.17
2022-12-08T06:31:25.801Z,4.14
2022-12-08T06:34:15.177Z,4.19
2022-12-08T06:37:04.496Z,4.20
2022-12-08T06:39:53.885Z,4.14
2022-12-08T06:42:45.128Z,4.18
2022-12-08T06:45:34.445Z,4.13
2022-12-08T06:48:25.341Z,4.15
2022-12-08T06:51:17.145Z,4.06
2022-12-08T06:54:06.718Z,4.07
2022-12-08T06:56:56.037Z,4.05
2022-12-08T06:59:45.909Z,4.06
2022-12-08T07:02:35.311Z,4.06
2022-12-08T07:05:26.156Z,4.14
2022-12-08T07:08:15.903Z,4.18
2022-12-08T07:11:09.675Z,4.15
2022-12-08T07:13:59.160Z,4.12
2022-12-08T07:16:48.798Z,4.05
2022-12-08T07:19:38.317Z,4.01
2022-12-08T07:22:29.306Z,4.05
2022-12-08T07:25:19.000Z,4.07
2022-12-08T07:28:12.602Z,4.09
2022-12-08T07:31:02.063Z,4.11
2022-12-08T07:33:51.783Z,4.12
2022-12-08T07:36:41.481Z,4.06
2022-12-08T07:39:32.566Z,4.11
2022-12-08T07:42:22.068Z,4.13
2022-12-08T07:45:12.512Z,4.08
2022-12-08T07:48:01.789Z,4.20
2022-12-08T07:50:51.187Z,4.12
2022-12-08T07:53:42.806Z,4.12
2022-12-08T07:56:34.959Z,4.14
2022-12-08T07:59:24.568Z,4.14
2022-12-08T08:02:24.675Z,4.16
2022-12-08T08:05:15.528Z,4.17
2022-12-08T08:08:05.317Z,4.11
2022-12-08T08:10:54.754Z,4.07
2022-12-08T08:13:46.947Z,4.01
2022-12-08T08:16:38.591Z,3.93
2022-12-08T08:19:29.881Z,3.92
2022-12-08T08:22:19.166Z,3.89
2022-12-08T08:25:10.773Z,3.90
2022-12-08T08:28:00.191Z,3.89
2022-12-08T08:30:51.290Z,3.88
2022-12-08T08:33:40.683Z,3.85
2022-12-08T08:36:30.081Z,3.83
2022-12-08T08:39:20.905Z,3.80
2022-12-08T08:42:11.419Z,3.75
2022-12-08T08:45:00.956Z,3.78
2022-12-08T08:47:51.830Z,3.80
2022-12-08T08:50:42.017Z,3.79
2022-12-08T08:53:31.369Z,3.78
2022-12-08T08:56:21.549Z,3.82
2022-12-08T08:59:12.487Z,3.86
2022-12-08T09:02:01.856Z,3.89
2022-12-08T09:04:52.985Z,3.95
2022-12-08T09:07:42.413Z,3.97
2022-12-08T09:10:31.760Z,3.95
2022-12-08T09:13:22.449Z,3.97
2022-12-08T09:16:13.774Z,3.97
2022-12-08T09:19:03.040Z,3.93
2022-12-08T09:21:55.261Z,3.90
2022-12-08T09:24:44.983Z,3.92
2022-12-08T09:27:34.282Z,3.97
2022-12-08T09:30:23.892Z,4.04
2022-12-08T09:33:14.182Z,4.09
2022-12-08T09:36:05.112Z,4.14
2022-12-08T09:38:58.160Z,4.26
2022-12-08T09:41:52.136Z,4.28
2022-12-08T09:44:51.942Z,4.48
2022-12-08T09:47:47.403Z,4.64
2022-12-08T09:50:42.452Z,4.67
2022-12-08T09:53:38.233Z,4.72
2022-12-08T09:56:35.836Z,4.84
2022-12-08T09:59:30.961Z,4.88
2022-12-08T10:02:24.850Z,4.83
2022-12-08T10:05:16.491Z,4.93
2022-12-08T10:08:14.128Z,4.93
2022-12-08T10:11:12.564Z,4.83
2022-12-08T10:14:20.244Z,4.93
2022-12-08T10:17:21.517Z,4.92
2022-12-08T10:20:19.282Z,5.04
2022-12-08T10:23:24.403Z,4.98
2022-12-08T10:26:17.184Z,5.07
2022-12-08T10:29:13.916Z,5.11
2022-12-08T10:32:18.339Z,5.16
2022-12-08T10:35:11.091Z,5.15
2022-12-08T10:38:02.932Z,5.29
2022-12-08T10:40:55.874Z,5.43
2022-12-08T10:43:48.855Z,5.57
2022-12-08T10:46:40.103Z,5.68
2022-12-08T10:49:33.657Z,5.67
2022-12-08T10:52:25.479Z,5.82
2022-12-08T10:55:20.822Z,5.84
2022-12-08T10:58:30.909Z,5.84
2022-12-08T11:01:25.046Z,5.87
2022-12-08T11:04:20.544Z,5.81
2022-12-08T11:07:11.897Z,5.79
2022-12-08T11:10:01.435Z,5.81
2022-12-08T11:12:51.757Z,5.83
2022-12-08T11:15:42.338Z,5.85
2022-12-08T11:18:41.505Z,5.82
2022-12-08T11:21:39.148Z,5.72
2022-12-08T11:24:36.027Z,5.95
2022-12-08T11:27:27.048Z,5.99
2022-12-08T11:30:20.073Z,5.96
2022-12-08T11:33:16.318Z,6.09
2022-12-08T11:36:11.189Z,6.11
2022-12-08T11:39:06.079Z,6.34
2022-12-08T11:41:58.326Z,6.47
2022-12-08T11:44:55.764Z,6.49
2022-12-08T11:47:55.981Z,6.56
2022-12-08T11:50:51.668Z,6.68
2022-12-08T11:53:51.629Z,6.80
2022-12-08T11:56:46.738Z,6.81
2022-12-08T11:59:41.903Z,7.16
2022-12-08T12:02:34.665Z,7.59
2022-12-08T12:08:57.890Z,7.85
2022-12-08T12:12:16.852Z,7.86
2022-12-08T12:15:38.059Z,7.79
2022-12-08T12:18:33.221Z,7.97
2022-12-08T12:21:27.741Z,7.86
2022-12-08T12:24:26.755Z,7.72
2022-12-08T12:27:29.338Z,7.50
2022-12-08T12:30:25.497Z,7.24
2022-12-08T12:33:18.285Z,7.14
2022-12-08T12:36:11.088Z,6.92
2022-12-08T12:39:03.336Z,6.86
2022-12-08T12:41:56.025Z,6.72
2022-12-08T12:44:46.683Z,6.66
2022-12-08T12:47:55.830Z,6.52
2022-12-08T12:50:47.908Z,6.34
2022-12-08T12:53:52.314Z,6.01
2022-12-08T12:56:56.732Z,5.95
2022-12-08T13:00:07.780Z,5.77
2022-12-08T13:02:59.795Z,5.78
2022-12-08T13:05:53.524Z,5.69
2022-12-08T13:08:52.575Z,5.72
2022-12-08T13:11:52.955Z,5.72
2022-12-08T13:14:51.844Z,5.66
2022-12-08T13:17:48.534Z,5.70
2022-12-08T13:20:47.428Z,5.70
2022-12-08T13:23:49.323Z,5.71
2022-12-08T13:26:46.189Z,5.67
2022-12-08T13:29:37.462Z,5.56
2022-12-08T13:36:23.945Z,5.59
2022-12-08T13:39:22.986Z,5.60
2022-12-08T13:42:25.035Z,5.54
2022-12-08T13:58:29.536Z,5.58
2022-12-08T14:01:22.874Z,5.59
2022-12-08T14:04:42.477Z,5.63
2022-12-08T14:07:28.802Z,5.53
2022-12-08T14:10:23.417Z,5.58
2022-12-08T14:13:15.185Z,5.60
2022-12-08T14:16:04.574Z,5.61
2022-12-08T14:18:54.001Z,5.65
2022-12-08T14:21:49.725Z,5.58
2022-12-08T14:24:39.127Z,5.60
2022-12-08T14:27:33.753Z,5.53
2022-12-08T14:30:27.377Z,5.56
2022-12-08T14:33:18.094Z,5.56
2022-12-08T14:36:10.546Z,5.57
2022-12-08T14:39:01.362Z,5.53
2022-12-08T14:42:02.235Z,5.49
2022-12-08T14:45:07.079Z,5.40
2022-12-08T14:47:56.442Z,5.43
2022-12-08T14:50:57.180Z,5.43
2022-12-08T14:53:53.273Z,5.40
2022-12-08T14:56:51.936Z,5.38
2022-12-08T14:59:44.325Z,5.42
2022-12-08T15:02:34.553Z,5.38
2022-12-08T15:05:28.194Z,5.41
2022-12-08T15:08:17.732Z,5.32
2022-12-08T15:11:34.898Z,5.22
2022-12-08T15:14:34.050Z,5.26
2022-12-08T15:17:35.817Z,5.22
2022-12-08T15:20:35.857Z,5.11
2022-12-08T15:23:31.543Z,5.05
2022-12-08T15:26:24.446Z,5.08
2022-12-08T15:29:20.617Z,5.07
2022-12-08T15:32:16.091Z,5.03
2022-12-08T15:35:05.946Z,5.00
2022-12-08T15:37:55.425Z,4.96
2022-12-08T15:40:44.772Z,4.92
2022-12-08T15:43:34.441Z,4.89
2022-12-08T15:46:23.783Z,4.87
2022-12-08T15:49:19.838Z,4.75
2022-12-08T15:52:16.194Z,4.72
2022-12-08T15:55:06.416Z,4.67
2022-12-08T16:01:06.670Z,4.56
2022-12-08T16:07:21.456Z,4.52
2022-12-08T16:10:18.560Z,4.51
2022-12-08T16:16:43.516Z,4.39
2022-12-08T16:19:32.860Z,4.33
2022-12-08T16:26:00.554Z,4.28
2022-12-08T16:28:54.070Z,4.21
2022-12-08T16:31:44.200Z,4.16
2022-12-08T16:34:33.750Z,4.08
2022-12-08T16:37:27.613Z,4.03
2022-12-08T16:40:17.285Z,3.98
2022-12-08T16:43:05.525Z,3.91
2022-12-08T16:45:55.116Z,3.86
2022-12-08T16:48:44.858Z,3.79
2022-12-08T16:51:34.246Z,3.73
2022-12-08T16:54:25.087Z,3.78
2022-12-08T16:57:14.889Z,3.79
2022-12-08T17:00:06.278Z,3.55
2022-12-08T17:02:56.383Z,3.73
2022-12-08T17:05:45.993Z,3.72
2022-12-08T17:08:35.316Z,3.70
2022-12-08T17:11:30.132Z,3.63
2022-12-08T17:14:19.956Z,3.57
2022-12-08T17:17:09.548Z,3.55
2022-12-08T17:19:58.855Z,3.50
2022-12-08T17:22:48.721Z,3.43
2022-12-08T17:25:38.083Z,3.43
2022-12-08T17:28:51.885Z,3.39
2022-12-08T17:31:38.719Z,3.34
2022-12-08T17:34:28.796Z,3.25
2022-12-08T17:37:18.903Z,3.31
2022-12-08T17:40:10.236Z,3.32
2022-12-08T17:42:59.533Z,3.29
2022-12-08T17:45:50.958Z,3.25
2022-12-08T17:48:40.277Z,3.20
2022-12-08T17:51:29.805Z,3.16
2022-12-08T17:54:20.312Z,3.14
2022-12-08T17:57:09.990Z,3.13
2022-12-08T17:59:59.468Z,3.09
2022-12-08T18:02:50.460Z,3.09
2022-12-08T18:05:39.789Z,3.05
2022-12-08T18:08:29.215Z,3.02
2022-12-08T18:11:20.991Z,2.98
2022-12-08T18:14:10.970Z,2.97
2022-12-08T18:17:00.438Z,2.95
2022-12-08T18:19:51.475Z,2.91
2022-12-08T18:22:41.876Z,2.90
2022-12-08T18:25:31.233Z,2.89
2022-12-08T18:28:20.522Z,2.90
2022-12-08T18:31:11.465Z,2.78
2022-12-08T18:34:00.743Z,2.82
2022-12-08T18:36:51.417Z,2.84
2022-12-08T18:39:41.057Z,2.80
2022-12-08T18:42:30.707Z,2.76
2022-12-08T18:45:22.683Z,2.71
2022-12-08T18:48:12.530Z,2.68
2022-12-08T18:53:53.685Z,2.71
2022-12-08T18:56:43.123Z,2.67
2022-12-08T18:59:32.626Z,2.22
2022-12-08T19:02:22.275Z,2.61
2022-12-08T19:05:14.210Z,2.56
2022-12-08T19:08:03.776Z,2.53
2022-12-08T19:10:54.552Z,2.44
2022-12-08T19:13:43.888Z,2.47
2022-12-08T19:16:33.313Z,2.45
2022-12-08T19:19:22.735Z,2.39
2022-12-08T19:22:12.384Z,2.38
2022-12-08T19:25:01.742Z,2.36
2022-12-08T19:27:52.492Z,2.27
2022-12-08T19:30:41.919Z,2.35
2022-12-08T19:33:31.391Z,2.34
2022-12-08T19:36:23.539Z,2.29
2022-12-08T19:39:36.975Z,2.32
2022-12-08T19:42:43.888Z,2.32
2022-12-08T19:45:37.706Z,2.27
2022-12-08T19:48:27.457Z,2.23
2022-12-08T19:51:16.791Z,2.26
2022-12-08T19:54:06.354Z,2.22
2022-12-08T19:56:55.633Z,2.13
2022-12-08T19:59:45.128Z,2.10
2022-12-08T20:02:36.668Z,2.10
2022-12-08T20:05:26.374Z,2.09
2022-12-08T20:08:16.165Z,2.01
2022-12-08T20:11:05.867Z,2.00
2022-12-08T20:13:55.257Z,2.00
2022-12-08T20:16:44.682Z,2.01
2022-12-08T20:19:35.413Z,2.01
2022-12-08T20:22:24.858Z,1.95
2022-12-08T20:25:15.016Z,1.96
2022-12-08T20:28:04.901Z,1.95
2022-12-08T20:30:54.322Z,1.94
2022-12-08T20:33:43.847Z,1.96
2022-12-08T20:36:34.614Z,1.94
2022-12-08T20:39:24.024Z,1.92
2022-12-08T20:42:14.854Z,1.94
2022-12-08T20:45:06.647Z,1.99
2022-12-08T20:47:56.254Z,1.95
2022-12-08T20:50:45.897Z,1.99
2022-12-08T20:53:36.871Z,1.99
2022-12-08T20:56:27.418Z,2.08
2022-12-08T20:59:18.369Z,2.14
2022-12-08T21:02:08.119Z,2.29
2022-12-08T21:04:57.687Z,2.45
2022-12-08T21:07:47.736Z,2.53
2022-12-08T21:10:43.666Z,2.56
2022-12-08T21:13:33.891Z,2.54
2022-12-08T21:16:23.398Z,2.62
2022-12-08T21:19:13.669Z,2.53
2022-12-08T21:22:03.427Z,2.56
2022-12-08T21:24:53.265Z,2.63
2022-12-08T21:27:44.053Z,2.63
2022-12-08T21:30:33.453Z,2.64
2022-12-08T21:33:23.276Z,2.70
2022-12-08T21:36:15.573Z,2.72
2022-12-08T21:39:11.303Z,2.75
2022-12-08T21:42:21.484Z,2.85
2022-12-08T21:45:16.320Z,2.92
2022-12-08T21:48:11.493Z,3.00
2022-12-08T21:51:06.626Z,3.01
2022-12-08T21:53:56.344Z,2.99
2022-12-08T21:56:46.321Z,2.95
2022-12-08T21:59:35.987Z,2.98
2022-12-08T22:02:26.906Z,3.03
2022-12-08T22:05:18.425Z,3.07
2022-12-08T22:08:08.183Z,3.06
2022-12-08T22:10:57.636Z,3.05
2022-12-08T22:13:47.042Z,3.02
2022-12-08T22:16:36.572Z,2.97
2022-12-08T22:19:27.798Z,2.93
2022-12-08T22:22:17.309Z,2.93
2022-12-08T22:25:11.065Z,2.86
2022-12-08T22:28:00.438Z,2.85
2022-12-08T22:30:49.940Z,2.83
2022-12-08T22:33:40.312Z,2.84
2022-12-08T22:36:31.031Z,2.85
2022-12-08T22:39:20.561Z,2.91
2022-12-08T22:42:10.003Z,2.95
2022-12-08T22:44:59.415Z,2.99
2022-12-08T22:47:48.703Z,3.00
2022-12-08T22:50:38.271Z,3.05
2022-12-08T22:53:29.338Z,3.06
2022-12-08T22:56:19.952Z,3.02
2022-12-08T22:59:09.276Z,3.01
2022-12-08T23:01:58.575Z,3.03
2022-12-08T23:04:48.670Z,3.06
2022-12-08T23:07:38.469Z,3.07
2022-12-08T23:10:29.926Z,3.06
2022-12-08T23:13:20.162Z,3.07
2022-12-08T23:16:10.971Z,3.02
2022-12-08T23:19:00.979Z,2.98
2022-12-08T23:21:50.430Z,3.03
2022-12-08T23:24:40.006Z,3.02
2022-12-08T23:27:30.836Z,2.97
2022-12-08T23:30:20.368Z,2.98
2022-12-08T23:33:09.932Z,2.99
2022-12-08T23:35:59.683Z,2.97
2022-12-08T23:38:49.217Z,3.06
2022-12-08T23:41:38.709Z,3.10
2022-12-08T23:44:29.615Z,3.11
2022-12-08T23:47:19.265Z,3.11
2022-12-08T23:50:10.872Z,3.10
2022-12-08T23:53:00.704Z,3.15
2022-12-08T23:55:50.251Z,3.09
2022-12-08T23:58:40.602Z,3.07
